sensor_id;sensor_type;location;lat;lon;timestamp;pressure;altitude;pressure_sealevel;temperature;humidity
47524;BME280;33253;42.144;25.884;2024-03-22T00:00:00;100711.53;;;7.35;100.00
47524;BME280;33253;42.144;25.884;2024-03-22T00:02:27;100714.47;;;7.26;100.00
47524;BME280;33253;42.144;25.884;2024-03-22T00:04:54;100703.88;;;7.20;100.00
47524;BME280;33253;42.144;25.884;2024-03-22T00:07:20;100696.38;;;7.08;100.00
47524;BME280;33253;42.144;25.884;2024-03-22T00:09:46;100700.84;;;6.96;100.00
47524;BME280;33253;42.144;25.884;2024-03-22T00:12:11;100699.81;;;6.77;100.00
47524;BME280;33253;42.144;25.884;2024-03-22T00:14:36;100702.59;;;6.66;100.00
47524;BME280;33253;42.144;25.884;2024-03-22T00:17:03;100701.53;;;6.32;100.00
47524;BME280;33253;42.144;25.884;2024-03-22T00:19:29;100701.53;;;6.17;100.00
47524;BME280;33253;42.144;25.884;2024-03-22T00:21:54;100699.41;;;6.25;100.00
47524;BME280;33253;42.144;25.884;2024-03-22T00:24:19;100703.81;;;6.12;100.00
47524;BME280;33253;42.144;25.884;2024-03-22T00:26:45;100697.38;;;6.19;100.00
47524;BME280;33253;42.144;25.884;2024-03-22T00:29:10;100698.19;;;6.33;100.00
47524;BME280;33253;42.144;25.884;2024-03-22T00:31:35;100699.41;;;6.40;100.00
47524;BME280;33253;42.144;25.884;2024-03-22T00:34:02;100705.53;;;6.42;100.00
47524;BME280;33253;42.144;25.884;2024-03-22T00:36:27;100704.19;;;6.48;100.00
47524;BME280;33253;42.144;25.884;2024-03-22T00:38:53;100703.47;;;6.66;100.00
47524;BME280;33253;42.144;25.884;2024-03-22T00:41:18;100706.78;;;6.80;100.00
47524;BME280;33253;42.144;25.884;2024-03-22T00:43:45;100708.25;;;6.60;100.00
47524;BME280;33253;42.144;25.884;2024-03-22T00:46:10;100697.63;;;6.54;100.00
47524;BME280;33253;42.144;25.884;2024-03-22T00:48:36;100709.22;;;6.62;100.00
47524;BME280;33253;42.144;25.884;2024-03-22T00:51:01;100718.78;;;6.64;100.00
47524;BME280;33253;42.144;25.884;2024-03-22T00:53:26;100717.28;;;6.68;100.00
47524;BME280;33253;42.144;25.884;2024-03-22T00:55:52;100717.28;;;6.68;100.00
47524;BME280;33253;42.144;25.884;2024-03-22T00:58:18;100717.63;;;6.74;100.00
47524;BME280;33253;42.144;25.884;2024-03-22T01:00:43;100709.66;;;6.70;100.00
47524;BME280;33253;42.144;25.884;2024-03-22T01:03:09;100712.56;;;6.76;100.00
47524;BME280;33253;42.144;25.884;2024-03-22T01:05:34;100717.97;;;6.66;100.00
47524;BME280;33253;42.144;25.884;2024-03-22T01:08:02;100717.38;;;6.55;100.00
47524;BME280;33253;42.144;25.884;2024-03-22T01:10:28;100719.31;;;6.44;100.00
47524;BME280;33253;42.144;25.884;2024-03-22T01:12:53;100715.50;;;6.22;100.00
47524;BME280;33253;42.144;25.884;2024-03-22T01:15:18;100719.03;;;6.09;100.00
47524;BME280;33253;42.144;25.884;2024-03-22T01:17:44;100714.72;;;5.95;100.00
47524;BME280;33253;42.144;25.884;2024-03-22T01:20:09;100715.13;;;5.73;100.00
47524;BME280;33253;42.144;25.884;2024-03-22T01:22:35;100711.03;;;5.61;100.00
47524;BME280;33253;42.144;25.884;2024-03-22T01:25:01;100712.81;;;5.62;100.00
47524;BME280;33253;42.144;25.884;2024-03-22T01:27:26;100707.50;;;5.74;100.00
47524;BME280;33253;42.144;25.884;2024-03-22T01:29:52;100713.25;;;5.70;100.00
47524;BME280;33253;42.144;25.884;2024-03-22T01:32:17;100707.91;;;5.52;100.00
47524;BME280;33253;42.144;25.884;2024-03-22T01:34:43;100704.66;;;5.55;100.00
47524;BME280;33253;42.144;25.884;2024-03-22T01:37:08;100699.75;;;5.16;100.00
47524;BME280;33253;42.144;25.884;2024-03-22T01:39:34;100699.41;;;5.25;100.00
47524;BME280;33253;42.144;25.884;2024-03-22T01:41:59;100697.97;;;4.88;100.00
47524;BME280;33253;42.144;25.884;2024-03-22T01:44:28;100701.13;;;4.84;100.00
47524;BME280;33253;42.144;25.884;2024-03-22T01:46:53;100700.94;;;4.81;100.00
47524;BME280;33253;42.144;25.884;2024-03-22T01:49:19;100699.66;;;4.74;100.00
47524;BME280;33253;42.144;25.884;2024-03-22T01:51:44;100699.88;;;4.77;100.00
47524;BME280;33253;42.144;25.884;2024-03-22T01:54:09;100701.31;;;4.87;100.00
47524;BME280;33253;42.144;25.884;2024-03-22T01:56:38;100703.56;;;4.96;100.00
47524;BME280;33253;42.144;25.884;2024-03-22T01:59:04;100703.78;;;5.12;100.00
47524;BME280;33253;42.144;25.884;2024-03-22T02:01:30;100704.81;;;5.29;100.00
47524;BME280;33253;42.144;25.884;2024-03-22T02:03:56;100702.91;;;5.40;100.00
47524;BME280;33253;42.144;25.884;2024-03-22T02:06:21;100703.66;;;5.53;100.00
47524;BME280;33253;42.144;25.884;2024-03-22T02:08:47;100705.28;;;5.65;100.00
47524;BME280;33253;42.144;25.884;2024-03-22T02:11:12;100703.59;;;5.51;100.00
47524;BME280;33253;42.144;25.884;2024-03-22T02:13:38;100707.94;;;5.39;100.00
47524;BME280;33253;42.144;25.884;2024-03-22T02:16:04;100696.78;;;5.51;100.00
47524;BME280;33253;42.144;25.884;2024-03-22T02:18:29;100700.88;;;5.63;100.00
47524;BME280;33253;42.144;25.884;2024-03-22T02:20:56;100700.03;;;5.49;100.00
47524;BME280;33253;42.144;25.884;2024-03-22T02:23:23;100712.91;;;5.50;100.00
47524;BME280;33253;42.144;25.884;2024-03-22T02:25:49;100718.72;;;5.61;100.00
47524;BME280;33253;42.144;25.884;2024-03-22T02:28:14;100734.78;;;5.59;100.00
47524;BME280;33253;42.144;25.884;2024-03-22T02:30:39;100733.41;;;5.50;100.00
47524;BME280;33253;42.144;25.884;2024-03-22T02:33:05;100729.28;;;5.53;100.00
47524;BME280;33253;42.144;25.884;2024-03-22T02:35:30;100733.00;;;5.58;100.00
47524;BME280;33253;42.144;25.884;2024-03-22T02:37:55;100734.88;;;5.47;100.00
47524;BME280;33253;42.144;25.884;2024-03-22T02:40:23;100736.56;;;5.60;100.00
47524;BME280;33253;42.144;25.884;2024-03-22T02:42:48;100739.88;;;5.72;100.00
47524;BME280;33253;42.144;25.884;2024-03-22T02:45:14;100746.28;;;5.65;100.00
47524;BME280;33253;42.144;25.884;2024-03-22T02:47:39;100758.88;;;5.76;100.00
47524;BME280;33253;42.144;25.884;2024-03-22T02:50:04;100746.59;;;5.85;100.00
47524;BME280;33253;42.144;25.884;2024-03-22T02:52:30;100751.09;;;5.89;100.00
47524;BME280;33253;42.144;25.884;2024-03-22T02:54:55;100748.19;;;5.83;100.00
47524;BME280;33253;42.144;25.884;2024-03-22T02:57:21;100750.75;;;5.83;100.00
47524;BME280;33253;42.144;25.884;2024-03-22T02:59:46;100752.09;;;5.63;100.00
47524;BME280;33253;42.144;25.884;2024-03-22T03:02:11;100751.38;;;5.65;100.00
47524;BME280;33253;42.144;25.884;2024-03-22T03:04:38;100746.97;;;5.21;100.00
47524;BME280;33253;42.144;25.884;2024-03-22T03:07:03;100745.41;;;4.69;100.00
47524;BME280;33253;42.144;25.884;2024-03-22T03:09:29;100745.31;;;4.68;100.00
47524;BME280;33253;42.144;25.884;2024-03-22T03:11:54;100756.53;;;4.70;100.00
47524;BME280;33253;42.144;25.884;2024-03-22T03:14:19;100771.25;;;4.61;100.00
47524;BME280;33253;42.144;25.884;2024-03-22T03:16:45;100770.25;;;4.45;100.00
47524;BME280;33253;42.144;25.884;2024-03-22T03:19:10;100776.97;;;3.93;100.00
47524;BME280;33253;42.144;25.884;2024-03-22T03:21:36;100781.72;;;3.63;100.00
47524;BME280;33253;42.144;25.884;2024-03-22T03:24:01;100789.53;;;3.40;100.00
47524;BME280;33253;42.144;25.884;2024-03-22T03:26:29;100783.44;;;3.38;100.00
47524;BME280;33253;42.144;25.884;2024-03-22T03:28:56;100782.84;;;3.43;100.00
47524;BME280;33253;42.144;25.884;2024-03-22T03:31:22;100788.97;;;3.56;100.00
47524;BME280;33253;42.144;25.884;2024-03-22T03:33:47;100781.47;;;3.71;100.00
47524;BME280;33253;42.144;25.884;2024-03-22T03:36:13;100783.47;;;3.76;100.00
47524;BME280;33253;42.144;25.884;2024-03-22T03:38:38;100783.81;;;3.68;100.00
47524;BME280;33253;42.144;25.884;2024-03-22T03:41:03;100797.22;;;3.78;100.00
47524;BME280;33253;42.144;25.884;2024-03-22T03:43:29;100801.66;;;3.80;100.00
47524;BME280;33253;42.144;25.884;2024-03-22T03:45:55;100810.19;;;3.81;100.00
47524;BME280;33253;42.144;25.884;2024-03-22T03:48:21;100798.69;;;3.62;100.00
47524;BME280;33253;42.144;25.884;2024-03-22T03:50:56;100808.81;;;3.61;100.00
47524;BME280;33253;42.144;25.884;2024-03-22T03:53:27;100815.72;;;3.26;100.00
47524;BME280;33253;42.144;25.884;2024-03-22T03:55:55;100808.09;;;3.14;100.00
47524;BME280;33253;42.144;25.884;2024-03-22T03:58:20;100811.53;;;3.15;100.00
47524;BME280;33253;42.144;25.884;2024-03-22T04:00:45;100816.88;;;3.18;100.00
47524;BME280;33253;42.144;25.884;2024-03-22T04:03:11;100823.63;;;3.05;100.00
47524;BME280;33253;42.144;25.884;2024-03-22T04:05:36;100831.59;;;2.98;100.00
47524;BME280;33253;42.144;25.884;2024-03-22T04:08:02;100834.56;;;2.92;100.00
47524;BME280;33253;42.144;25.884;2024-03-22T04:10:27;100834.03;;;3.08;100.00
47524;BME280;33253;42.144;25.884;2024-03-22T04:12:54;100840.81;;;3.32;100.00
47524;BME280;33253;42.144;25.884;2024-03-22T04:15:19;100840.91;;;3.45;100.00
47524;BME280;33253;42.144;25.884;2024-03-22T04:17:46;100853.56;;;3.32;100.00
47524;BME280;33253;42.144;25.884;2024-03-22T04:20:11;100851.69;;;3.05;100.00
47524;BME280;33253;42.144;25.884;2024-03-22T04:22:39;100852.44;;;3.04;100.00
47524;BME280;33253;42.144;25.884;2024-03-22T04:25:18;100850.56;;;3.14;100.00
47524;BME280;33253;42.144;25.884;2024-03-22T04:27:44;100860.75;;;3.14;100.00
47524;BME280;33253;42.144;25.884;2024-03-22T04:30:17;100860.53;;;2.99;100.00
47524;BME280;33253;42.144;25.884;2024-03-22T04:32:45;100861.84;;;2.94;100.00
47524;BME280;33253;42.144;25.884;2024-03-22T04:35:10;100857.41;;;2.91;100.00
47524;BME280;33253;42.144;25.884;2024-03-22T04:37:37;100852.75;;;2.85;100.00
47524;BME280;33253;42.144;25.884;2024-03-22T04:40:03;100859.34;;;2.59;100.00
47524;BME280;33253;42.144;25.884;2024-03-22T04:42:28;100866.91;;;2.58;100.00
47524;BME280;33253;42.144;25.884;2024-03-22T04:44:54;100871.44;;;2.74;100.00
47524;BME280;33253;42.144;25.884;2024-03-22T04:47:19;100872.06;;;2.94;100.00
47524;BME280;33253;42.144;25.884;2024-03-22T04:49:45;100873.69;;;2.81;100.00
47524;BME280;33253;42.144;25.884;2024-03-22T04:52:11;100881.63;;;2.62;100.00
47524;BME280;33253;42.144;25.884;2024-03-22T04:54:36;100894.38;;;2.62;100.00
47524;BME280;33253;42.144;25.884;2024-03-22T04:57:01;100897.81;;;2.63;100.00
47524;BME280;33253;42.144;25.884;2024-03-22T04:59:27;100894.84;;;2.80;100.00
47524;BME280;33253;42.144;25.884;2024-03-22T05:01:52;100896.91;;;2.96;100.00
47524;BME280;33253;42.144;25.884;2024-03-22T05:04:18;100891.63;;;3.17;100.00
47524;BME280;33253;42.144;25.884;2024-03-22T05:06:43;100902.38;;;3.36;100.00
47524;BME280;33253;42.144;25.884;2024-03-22T05:09:10;100898.75;;;3.56;100.00
47524;BME280;33253;42.144;25.884;2024-03-22T05:11:36;100903.16;;;3.59;100.00
47524;BME280;33253;42.144;25.884;2024-03-22T05:14:01;100907.59;;;3.73;100.00
47524;BME280;33253;42.144;25.884;2024-03-22T05:16:28;100913.91;;;3.91;100.00
47524;BME280;33253;42.144;25.884;2024-03-22T05:18:55;100909.63;;;4.15;100.00
47524;BME280;33253;42.144;25.884;2024-03-22T05:21:21;100901.09;;;4.40;100.00
47524;BME280;33253;42.144;25.884;2024-03-22T05:23:47;100902.16;;;4.55;100.00
47524;BME280;33253;42.144;25.884;2024-03-22T05:26:12;100908.09;;;4.42;100.00
47524;BME280;33253;42.144;25.884;2024-03-22T05:28:37;100914.69;;;3.89;100.00
47524;BME280;33253;42.144;25.884;2024-03-22T05:31:03;100926.44;;;3.87;100.00
47524;BME280;33253;42.144;25.884;2024-03-22T05:33:30;100930.91;;;3.66;100.00
47524;BME280;33253;42.144;25.884;2024-03-22T05:35:55;100935.13;;;3.42;100.00
47524;BME280;33253;42.144;25.884;2024-03-22T05:38:21;100932.69;;;3.55;100.00
47524;BME280;33253;42.144;25.884;2024-03-22T05:40:47;100934.78;;;3.85;100.00
47524;BME280;33253;42.144;25.884;2024-03-22T05:43:13;100924.78;;;3.88;100.00
47524;BME280;33253;42.144;25.884;2024-03-22T05:45:38;100927.25;;;3.86;100.00
47524;BME280;33253;42.144;25.884;2024-03-22T05:48:05;100925.22;;;3.82;100.00
47524;BME280;33253;42.144;25.884;2024-03-22T05:50:30;100933.75;;;4.07;100.00
47524;BME280;33253;42.144;25.884;2024-03-22T05:52:56;100941.31;;;4.42;100.00
47524;BME280;33253;42.144;25.884;2024-03-22T05:55:22;100942.06;;;4.53;100.00
47524;BME280;33253;42.144;25.884;2024-03-22T05:57:48;100947.41;;;4.56;100.00
47524;BME280;33253;42.144;25.884;2024-03-22T06:00:16;100945.66;;;4.68;100.00
47524;BME280;33253;42.144;25.884;2024-03-22T06:02:41;100952.56;;;4.95;100.00
47524;BME280;33253;42.144;25.884;2024-03-22T06:05:07;100944.44;;;5.14;100.00
47524;BME280;33253;42.144;25.884;2024-03-22T06:07:32;100953.41;;;5.21;100.00
47524;BME280;33253;42.144;25.884;2024-03-22T06:10:05;100955.81;;;5.31;100.00
47524;BME280;33253;42.144;25.884;2024-03-22T06:12:31;100960.66;;;5.40;100.00
47524;BME280;33253;42.144;25.884;2024-03-22T06:14:57;100967.94;;;5.60;100.00
47524;BME280;33253;42.144;25.884;2024-03-22T06:17:23;100968.13;;;5.77;100.00
47524;BME280;33253;42.144;25.884;2024-03-22T06:19:48;100962.13;;;5.90;99.16
47524;BME280;33253;42.144;25.884;2024-03-22T06:22:13;100960.75;;;5.81;99.72
47524;BME280;33253;42.144;25.884;2024-03-22T06:24:39;100953.47;;;5.88;100.00
47524;BME280;33253;42.144;25.884;2024-03-22T06:27:06;100952.75;;;5.90;100.00
47524;BME280;33253;42.144;25.884;2024-03-22T06:29:33;100955.53;;;6.07;99.37
47524;BME280;33253;42.144;25.884;2024-03-22T06:31:59;100962.56;;;6.09;98.72
47524;BME280;33253;42.144;25.884;2024-03-22T06:34:24;100966.78;;;6.09;98.84
47524;BME280;33253;42.144;25.884;2024-03-22T06:36:49;100969.44;;;5.97;98.72
47524;BME280;33253;42.144;25.884;2024-03-22T06:39:16;100971.88;;;5.95;99.35
47524;BME280;33253;42.144;25.884;2024-03-22T06:41:41;100971.69;;;6.19;97.19
47524;BME280;33253;42.144;25.884;2024-03-22T06:44:07;100976.81;;;6.19;95.89
47524;BME280;33253;42.144;25.884;2024-03-22T06:46:34;100975.59;;;6.41;94.39
47524;BME280;33253;42.144;25.884;2024-03-22T06:48:59;100972.16;;;6.69;92.66
47524;BME280;33253;42.144;25.884;2024-03-22T06:51:25;100967.25;;;6.87;92.53
47524;BME280;33253;42.144;25.884;2024-03-22T06:53:50;100822.69;;;5.86;91.72
47524;BME280;33253;42.144;25.884;2024-03-22T06:56:18;100965.25;;;6.68;91.88
47524;BME280;33253;42.144;25.884;2024-03-22T06:58:44;100961.09;;;6.70;90.47
47524;BME280;33253;42.144;25.884;2024-03-22T07:01:09;100965.97;;;6.80;91.69
47524;BME280;33253;42.144;25.884;2024-03-22T07:03:34;100977.06;;;6.94;92.11
47524;BME280;33253;42.144;25.884;2024-03-22T07:06:01;100984.41;;;6.88;86.27
47524;BME280;33253;42.144;25.884;2024-03-22T07:08:27;100983.84;;;7.07;85.15
47524;BME280;33253;42.144;25.884;2024-03-22T07:10:53;100979.31;;;7.33;82.94
47524;BME280;33253;42.144;25.884;2024-03-22T07:13:19;100983.88;;;7.67;79.88
47524;BME280;33253;42.144;25.884;2024-03-22T07:15:45;100977.09;;;7.84;81.22
47524;BME280;33253;42.144;25.884;2024-03-22T07:18:12;100990.16;;;8.03;81.64
47524;BME280;33253;42.144;25.884;2024-03-22T07:20:38;100985.19;;;8.21;80.29
47524;BME280;33253;42.144;25.884;2024-03-22T07:23:03;100994.50;;;8.36;78.11
47524;BME280;33253;42.144;25.884;2024-03-22T07:25:30;100996.53;;;8.41;75.36
47524;BME280;33253;42.144;25.884;2024-03-22T07:27:55;100991.38;;;8.56;72.95
47524;BME280;33253;42.144;25.884;2024-03-22T07:30:21;100979.38;;;8.57;74.29
47524;BME280;33253;42.144;25.884;2024-03-22T07:32:47;100988.03;;;8.42;74.83
47524;BME280;33253;42.144;25.884;2024-03-22T07:35:12;100983.09;;;8.31;74.08
47524;BME280;33253;42.144;25.884;2024-03-22T07:37:38;100983.44;;;8.05;74.15
47524;BME280;33253;42.144;25.884;2024-03-22T07:40:05;100981.25;;;8.28;76.91
47524;BME280;33253;42.144;25.884;2024-03-22T07:42:31;100984.94;;;8.33;77.53
47524;BME280;33253;42.144;25.884;2024-03-22T07:44:57;100989.53;;;8.39;71.86
47524;BME280;33253;42.144;25.884;2024-03-22T07:47:22;100984.06;;;8.33;76.90
47524;BME280;33253;42.144;25.884;2024-03-22T07:49:47;100988.81;;;8.41;74.96
47524;BME280;33253;42.144;25.884;2024-03-22T07:52:13;100988.22;;;8.31;72.98
47524;BME280;33253;42.144;25.884;2024-03-22T07:54:39;100980.94;;;8.38;75.09
47524;BME280;33253;42.144;25.884;2024-03-22T07:57:04;100986.75;;;8.51;72.36
47524;BME280;33253;42.144;25.884;2024-03-22T07:59:30;100982.06;;;8.58;70.53
47524;BME280;33253;42.144;25.884;2024-03-22T08:01:55;100981.72;;;8.85;67.13
47524;BME280;33253;42.144;25.884;2024-03-22T08:04:22;100984.53;;;9.06;69.04
47524;BME280;33253;42.144;25.884;2024-03-22T08:06:50;100979.81;;;9.16;66.09
47524;BME280;33253;42.144;25.884;2024-03-22T08:09:15;100971.78;;;9.10;68.93
47524;BME280;33253;42.144;25.884;2024-03-22T08:11:41;100977.91;;;9.12;69.60
47524;BME280;33253;42.144;25.884;2024-03-22T08:14:06;100985.22;;;9.20;67.78
47524;BME280;33253;42.144;25.884;2024-03-22T08:16:32;100988.50;;;9.34;64.76
47524;BME280;33253;42.144;25.884;2024-03-22T08:18:57;100985.66;;;9.46;64.36
47524;BME280;33253;42.144;25.884;2024-03-22T08:21:23;100977.78;;;9.61;66.47
47524;BME280;33253;42.144;25.884;2024-03-22T08:23:50;100977.50;;;9.55;65.96
47524;BME280;33253;42.144;25.884;2024-03-22T08:26:16;100978.34;;;9.55;69.17
47524;BME280;33253;42.144;25.884;2024-03-22T08:28:41;100979.56;;;9.28;68.18
47524;BME280;33253;42.144;25.884;2024-03-22T08:31:06;100981.88;;;9.05;68.94
47524;BME280;33253;42.144;25.884;2024-03-22T08:33:32;100976.44;;;9.33;67.76
47524;BME280;33253;42.144;25.884;2024-03-22T08:35:57;100979.69;;;9.47;66.54
47524;BME280;33253;42.144;25.884;2024-03-22T08:38:22;100979.47;;;9.43;62.23
47524;BME280;33253;42.144;25.884;2024-03-22T08:40:49;100979.25;;;9.56;63.65
47524;BME280;33253;42.144;25.884;2024-03-22T08:43:15;100972.69;;;9.63;65.41
47524;BME280;33253;42.144;25.884;2024-03-22T08:45:40;100964.19;;;9.29;68.41
47524;BME280;33253;42.144;25.884;2024-03-22T08:48:06;100964.66;;;9.38;66.67
47524;BME280;33253;42.144;25.884;2024-03-22T08:50:33;100970.50;;;9.52;65.82
47524;BME280;33253;42.144;25.884;2024-03-22T08:52:58;100964.66;;;9.57;65.63
47524;BME280;33253;42.144;25.884;2024-03-22T08:55:24;100972.28;;;9.53;63.05
47524;BME280;33253;42.144;25.884;2024-03-22T08:57:49;100971.75;;;9.79;62.45
47524;BME280;33253;42.144;25.884;2024-03-22T09:00:15;100968.81;;;10.07;60.46
47524;BME280;33253;42.144;25.884;2024-03-22T09:02:40;100966.47;;;10.31;62.15
47524;BME280;33253;42.144;25.884;2024-03-22T09:05:06;100965.66;;;10.32;61.11
47524;BME280;33253;42.144;25.884;2024-03-22T09:07:31;100957.91;;;10.32;61.78
47524;BME280;33253;42.144;25.884;2024-03-22T09:09:56;100958.44;;;10.43;58.98
47524;BME280;33253;42.144;25.884;2024-03-22T09:12:22;100955.84;;;10.63;60.60
47524;BME280;33253;42.144;25.884;2024-03-22T09:14:47;100950.84;;;10.86;57.91
47524;BME280;33253;42.144;25.884;2024-03-22T09:17:12;100945.19;;;10.94;55.36
47524;BME280;33253;42.144;25.884;2024-03-22T09:19:38;100937.38;;;11.14;56.78
47524;BME280;33253;42.144;25.884;2024-03-22T09:22:03;100935.66;;;11.34;56.44
47524;BME280;33253;42.144;25.884;2024-03-22T09:24:29;100934.63;;;11.52;55.17
47524;BME280;33253;42.144;25.884;2024-03-22T09:26:54;100928.13;;;11.61;52.41
47524;BME280;33253;42.144;25.884;2024-03-22T09:29:20;100926.25;;;11.80;57.46
47524;BME280;33253;42.144;25.884;2024-03-22T09:31:45;100929.97;;;11.87;52.60
47524;BME280;33253;42.144;25.884;2024-03-22T09:34:11;100926.38;;;12.04;53.16
47524;BME280;33253;42.144;25.884;2024-03-22T09:36:37;100933.41;;;12.08;54.11
47524;BME280;33253;42.144;25.884;2024-03-22T09:39:03;100912.75;;;12.10;48.20
47524;BME280;33253;42.144;25.884;2024-03-22T09:41:29;100914.19;;;12.24;49.84
47524;BME280;33253;42.144;25.884;2024-03-22T09:43:57;100909.41;;;12.35;52.46
47524;BME280;33253;42.144;25.884;2024-03-22T09:46:23;100910.41;;;12.39;53.19
47524;BME280;33253;42.144;25.884;2024-03-22T09:48:49;100896.34;;;12.56;54.52
47524;BME280;33253;42.144;25.884;2024-03-22T09:51:16;100905.56;;;12.72;53.04
47524;BME280;33253;42.144;25.884;2024-03-22T09:53:43;100897.34;;;12.86;50.09
47524;BME280;33253;42.144;25.884;2024-03-22T09:56:09;100891.03;;;13.03;51.39
47524;BME280;33253;42.144;25.884;2024-03-22T09:58:36;100893.97;;;12.62;48.41
47524;BME280;33253;42.144;25.884;2024-03-22T10:01:03;100889.84;;;12.68;48.01
47524;BME280;33253;42.144;25.884;2024-03-22T10:03:34;100892.16;;;12.86;50.36
47524;BME280;33253;42.144;25.884;2024-03-22T10:06:01;100878.44;;;13.14;47.98
47524;BME280;33253;42.144;25.884;2024-03-22T10:08:27;100891.22;;;13.35;50.19
47524;BME280;33253;42.144;25.884;2024-03-22T10:10:52;100884.75;;;13.48;47.02
47524;BME280;33253;42.144;25.884;2024-03-22T10:13:17;100876.56;;;13.63;48.08
47524;BME280;33253;42.144;25.884;2024-03-22T10:15:43;100878.00;;;13.53;49.08
47524;BME280;33253;42.144;25.884;2024-03-22T10:18:09;100873.47;;;12.94;47.16
47524;BME280;33253;42.144;25.884;2024-03-22T10:20:34;100872.56;;;12.42;44.95
47524;BME280;33253;42.144;25.884;2024-03-22T10:23:00;100872.44;;;12.39;46.48
47524;BME280;33253;42.144;25.884;2024-03-22T10:25:26;100866.34;;;12.87;49.00
47524;BME280;33253;42.144;25.884;2024-03-22T10:27:53;100861.03;;;13.10;45.30
47524;BME280;33253;42.144;25.884;2024-03-22T10:30:19;100865.25;;;13.34;43.60
47524;BME280;33253;42.144;25.884;2024-03-22T10:32:44;100860.34;;;13.70;44.03
47524;BME280;33253;42.144;25.884;2024-03-22T10:35:13;100848.72;;;13.86;45.27
47524;BME280;33253;42.144;25.884;2024-03-22T10:37:38;100845.34;;;13.89;44.95
47524;BME280;33253;42.144;25.884;2024-03-22T10:40:04;100846.91;;;13.84;44.52
47524;BME280;33253;42.144;25.884;2024-03-22T10:42:37;100845.19;;;13.84;47.52
47524;BME280;33253;42.144;25.884;2024-03-22T10:45:04;100837.25;;;14.08;43.60
47524;BME280;33253;42.144;25.884;2024-03-22T10:47:30;100832.47;;;14.24;43.36
47524;BME280;33253;42.144;25.884;2024-03-22T10:50:04;100828.72;;;14.45;44.92
47524;BME280;33253;42.144;25.884;2024-03-22T10:52:31;100832.75;;;14.65;41.03
47524;BME280;33253;42.144;25.884;2024-03-22T10:54:59;100827.06;;;14.47;38.77
47524;BME280;33253;42.144;25.884;2024-03-22T10:57:25;100817.81;;;14.58;40.97
47524;BME280;33253;42.144;25.884;2024-03-22T10:59:54;100810.81;;;14.89;43.02
47524;BME280;33253;42.144;25.884;2024-03-22T11:02:19;100817.78;;;14.90;40.25
47524;BME280;33253;42.144;25.884;2024-03-22T11:04:57;100813.81;;;15.04;42.71
47524;BME280;33253;42.144;25.884;2024-03-22T11:07:23;100810.72;;;15.21;39.31
47524;BME280;33253;42.144;25.884;2024-03-22T11:09:53;100806.72;;;15.35;36.47
47524;BME280;33253;42.144;25.884;2024-03-22T11:12:20;100798.34;;;15.49;36.81
47524;BME280;33253;42.144;25.884;2024-03-22T11:14:47;100799.00;;;15.40;39.20
47524;BME280;33253;42.144;25.884;2024-03-22T11:17:13;100796.88;;;15.22;41.23
47524;BME280;33253;42.144;25.884;2024-03-22T11:19:40;100798.19;;;15.04;39.28
47524;BME280;33253;42.144;25.884;2024-03-22T11:22:08;100786.06;;;15.05;40.66
47524;BME280;33253;42.144;25.884;2024-03-22T11:24:33;100779.59;;;14.54;39.03
47524;BME280;33253;42.144;25.884;2024-03-22T11:26:59;100776.31;;;14.28;43.13
47524;BME280;33253;42.144;25.884;2024-03-22T11:29:24;100774.22;;;14.14;43.66
47524;BME280;33253;42.144;25.884;2024-03-22T11:31:50;100775.34;;;14.24;41.48
47524;BME280;33253;42.144;25.884;2024-03-22T11:34:16;100772.88;;;14.62;41.34
47524;BME280;33253;42.144;25.884;2024-03-22T11:36:42;100773.16;;;15.08;41.90
47524;BME280;33253;42.144;25.884;2024-03-22T11:39:07;100757.13;;;15.28;38.80
47524;BME280;33253;42.144;25.884;2024-03-22T11:41:34;100760.25;;;15.52;37.74
47524;BME280;33253;42.144;25.884;2024-03-22T11:44:00;100752.00;;;15.74;36.92
47524;BME280;33253;42.144;25.884;2024-03-22T11:46:26;100745.34;;;15.85;36.05
47524;BME280;33253;42.144;25.884;2024-03-22T11:48:55;100744.69;;;15.97;34.58
47524;BME280;33253;42.144;25.884;2024-03-22T11:51:22;100739.25;;;15.86;34.19
47524;BME280;33253;42.144;25.884;2024-03-22T11:53:48;100742.78;;;15.88;33.79
47524;BME280;33253;42.144;25.884;2024-03-22T11:56:17;100730.94;;;16.04;35.53
47524;BME280;33253;42.144;25.884;2024-03-22T11:58:42;100732.03;;;16.17;37.32
47524;BME280;33253;42.144;25.884;2024-03-22T12:01:08;100728.19;;;15.96;36.77
47524;BME280;33253;42.144;25.884;2024-03-22T12:03:34;100732.91;;;14.92;38.40
47524;BME280;33253;42.144;25.884;2024-03-22T12:06:10;100727.84;;;14.98;39.65
47524;BME280;33253;42.144;25.884;2024-03-22T12:08:36;100726.53;;;15.17;38.51
47524;BME280;33253;42.144;25.884;2024-03-22T12:11:03;100717.34;;;15.33;40.65
47524;BME280;33253;42.144;25.884;2024-03-22T12:13:42;100716.34;;;15.27;37.99
47524;BME280;33253;42.144;25.884;2024-03-22T12:16:09;100713.75;;;15.69;37.18
47524;BME280;33253;42.144;25.884;2024-03-22T12:18:42;100709.69;;;15.40;38.19
47524;BME280;33253;42.144;25.884;2024-03-22T12:23:59;100703.97;;;15.16;39.70
47524;BME280;33253;42.144;25.884;2024-03-22T12:29:37;100701.44;;;15.61;39.55
47524;BME280;33253;42.144;25.884;2024-03-22T12:32:06;100694.25;;;15.92;38.88
47524;BME280;33253;42.144;25.884;2024-03-22T12:34:32;100686.59;;;16.01;39.96
47524;BME280;33253;42.144;25.884;2024-03-22T12:36:58;100685.03;;;16.11;36.88
47524;BME280;33253;42.144;25.884;2024-03-22T12:39:27;100684.28;;;16.16;37.47
47524;BME280;33253;42.144;25.884;2024-03-22T12:42:03;100689.13;;;16.47;37.77